.
WxDataArchive / Data Records for 2011-10-16
2011-10-15 October 2011 2011-10-17

Data Records for Sunday, 16 October 2011

Time	Temp	Chill	HIndex	Humid	Dewpt	 Wind 	HiWind	WindDir	Rain 	Barom 
-----	----	-----	------	-----	-----	------	------	-------	-----	----- 
00:00	51.6	51.6	51.6	56	36.4	1	3	248	0.00	29.884 
00:05	51.6	51.6	51.6	56	36.4	0	2	248	0.00	29.884 
00:10	51.4	51.4	51.4	56	36.2	0	3	248	0.00	29.884 
00:15	51.4	51.4	51.4	56	36.2	1	3	248	0.00	29.881 
00:20	51.4	51.4	51.4	56	36.2	0	2	248	0.00	29.881 
00:25	51.3	51.3	51.3	56	36.1	0	2	248	0.00	29.881 
00:30	51.3	51.3	51.3	56	36.1	1	3	248	0.00	29.886 
00:35	51.3	51.3	51.3	56	36.1	0	2	248	0.00	29.886 
00:40	51.3	51.3	51.3	56	36.1	1	3	248	0.00	29.886 
00:45	51.3	51.3	51.3	57	36.6	0	2	248	0.00	29.888 
00:50	51.1	51.1	51.1	57	36.4	0	2	248	0.00	29.888 
00:55	51.1	51.1	51.1	57	36.4	0	3	248	0.00	29.888 
01:00	51.1	51.1	51.1	57	36.4	0	2	248	0.00	29.889 
01:05	51.3	51.3	51.3	57	36.6	0	3	248	0.00	29.889 
01:10	51.3	51.3	51.3	57	36.6	1	3	248	0.00	29.889 
01:15	51.4	51.4	51.4	57	36.7	0	2	248	0.00	29.893 
01:20	51.4	51.4	51.4	57	36.7	1	3	248	0.00	29.893 
01:25	51.4	51.4	51.4	57	36.7	1	2	248	0.00	29.893 
01:30	51.4	51.4	51.4	58	37.1	1	3	248	0.00	29.894 
01:35	51.6	51.6	51.6	57	36.9	1	3	248	0.00	29.894 
01:40	51.6	51.6	51.6	57	36.9	1	4	248	0.00	29.894 
01:45	51.7	51.7	51.7	57	37.0	1	3	248	0.00	29.896 
01:50	51.9	51.9	51.9	57	37.1	1	3	248	0.00	29.896 
01:55	51.9	51.9	51.9	57	37.1	1	3	248	0.00	29.896 
02:00	51.9	51.9	51.9	57	37.1	0	3	248	0.00	29.903 
02:05	51.7	51.7	51.7	57	37.0	0	2	248	0.00	29.903 
02:10	51.7	51.7	51.7	57	37.0	1	3	248	0.00	29.903 
02:15	51.7	51.7	51.7	57	37.0	0	2	248	0.00	29.897 
02:20	51.7	51.7	51.7	57	37.0	0	2	248	0.00	29.897 
02:25	51.6	51.6	51.6	58	37.3	0	2	248	0.00	29.897 
02:30	51.6	51.6	51.6	58	37.3	0	2	248	0.00	29.897 
02:35	51.4	51.4	51.4	58	37.1	0	2	248	0.00	29.897 
02:40	51.3	51.3	51.3	58	37.0	0	1	248	0.00	29.897 
02:45	51.3	51.3	51.3	58	37.0	0	2	248	0.00	29.900 
02:50	51.1	51.1	51.1	58	36.8	0	1	248	0.00	29.900 
02:55	51.1	51.1	51.1	58	36.8	0	1	248	0.00	29.900 
03:00	51.1	51.1	51.1	58	36.8	0	1	248	0.00	29.892 
03:05	51.1	51.1	51.1	58	36.8	0	1	248	0.00	29.892 
03:10	51.1	51.1	51.1	58	36.8	0	2	248	0.00	29.892 
03:15	51.1	51.1	51.1	58	36.8	0	4	248	0.00	29.888 
03:20	51.1	51.1	51.1	59	37.3	0	2	225	0.00	29.888 
03:25	51.0	51.0	51.0	59	37.2	0	2	225	0.00	29.888 
03:30	50.8	50.8	50.8	60	37.4	0	1	225	0.00	29.886 
03:35	50.7	50.7	50.7	60	37.3	0	1	225	0.00	29.886 
03:40	50.5	50.5	50.5	61	37.6	0	1	225	0.00	29.886 
03:45	50.4	50.4	50.4	61	37.5	0	1	225	0.00	29.885 
03:50	50.2	50.2	50.2	62	37.7	0	1	225	0.00	29.885 
03:55	50.2	50.2	50.2	62	37.7	0	2	225	0.00	29.885 
04:00	50.1	50.1	50.1	62	37.6	0	1	225	0.00	29.887 
04:05	49.9	49.9	49.9	62	37.4	0	0	---	0.00	29.887 
04:10	49.6	49.6	49.6	63	37.5	0	0	---	0.00	29.887 
04:15	49.5	49.5	49.5	64	37.8	0	0	---	0.00	29.880 
04:20	49.2	49.2	49.2	64	37.5	0	0	---	0.00	29.880 
04:25	48.9	48.9	48.9	65	37.7	0	0	---	0.00	29.880 
04:30	48.8	48.8	48.8	65	37.6	0	0	---	0.00	29.880 
04:35	48.5	48.5	48.5	65	37.3	0	0	---	0.00	29.880 
04:40	48.3	48.3	48.3	66	37.5	0	0	---	0.00	29.880 
04:45	48.2	48.2	48.2	67	37.8	0	0	---	0.00	29.886 
04:50	48.2	48.2	48.2	67	37.8	0	1	225	0.00	29.886 
04:55	48.2	48.2	48.2	68	38.1	0	0	---	0.00	29.886 
05:00	48.2	48.2	48.2	68	38.1	0	0	---	0.00	29.879 
05:05	48.2	48.2	48.2	68	38.1	0	0	---	0.00	29.879 
05:10	48.0	48.0	48.0	68	37.9	0	0	---	0.00	29.879 
05:15	47.7	47.7	47.7	70	38.4	0	0	---	0.00	29.873 
05:20	47.6	47.6	47.6	70	38.3	0	0	---	0.00	29.873 
05:25	47.3	47.3	47.3	71	38.4	0	0	---	0.00	29.873 
05:30	47.0	47.0	47.0	71	38.1	0	0	---	0.00	29.875 
05:35	46.7	46.7	46.7	72	38.2	0	0	---	0.00	29.875 
05:40	46.5	46.5	46.5	73	38.3	0	1	225	0.00	29.875 
05:45	46.7	46.7	46.7	73	38.5	0	0	---	0.00	29.872 
05:50	46.8	46.8	46.8	73	38.6	0	0	---	0.00	29.872 
05:55	47.0	47.0	47.0	73	38.8	0	1	225	0.00	29.872 
06:00	47.0	47.0	47.0	73	38.8	0	0	---	0.00	29.863 
06:05	46.8	46.8	46.8	73	38.6	0	0	---	0.00	29.863 
06:10	46.7	46.7	46.7	73	38.5	0	0	---	0.00	29.863 
06:15	46.5	46.5	46.5	74	38.7	0	0	---	0.00	29.857 
06:20	46.5	46.5	46.5	74	38.7	0	0	---	0.00	29.857 
06:25	46.4	46.4	46.4	75	38.9	0	0	---	0.00	29.857 
06:30	46.4	46.4	46.4	75	38.9	0	0	---	0.00	29.853 
06:35	46.4	46.4	46.4	75	38.9	0	0	---	0.00	29.853 
06:40	46.4	46.4	46.4	75	38.9	0	0	---	0.00	29.853 
06:45	46.4	46.4	46.4	75	38.9	0	0	---	0.00	29.846 
06:50	46.4	46.4	46.4	75	38.9	0	0	---	0.00	29.846 
06:55	46.4	46.4	46.4	75	38.9	0	0	---	0.00	29.846 
07:00	46.2	46.2	46.2	75	38.7	0	0	---	0.00	29.836 
07:05	46.1	46.1	46.1	76	39.0	0	0	---	0.00	29.836 
07:10	46.0	46.0	46.0	77	39.2	0	0	---	0.00	29.836 
07:15	45.8	45.8	45.8	77	39.0	0	0	---	0.00	29.833 
07:20	45.8	45.8	45.8	78	39.3	0	0	---	0.00	29.833 
07:25	46.0	46.0	46.0	78	39.5	0	0	---	0.00	29.833 
07:30	46.1	46.1	46.1	78	39.6	0	0	---	0.00	29.831 
07:35	46.4	46.4	46.4	77	39.6	0	0	---	0.00	29.831 
07:40	46.7	46.7	46.7	77	39.9	0	1	225	0.00	29.831 
07:45	47.0	47.0	47.0	76	39.8	0	0	---	0.00	29.821 
07:50	47.1	47.1	47.1	75	39.6	0	0	---	0.00	29.821 
07:55	47.3	47.3	47.3	75	39.8	0	0	---	0.00	29.821 
08:00	47.4	47.4	47.4	75	39.9	0	0	---	0.00	29.821 
08:05	47.6	47.6	47.6	75	40.1	0	0	---	0.00	29.821 
08:10	47.6	47.6	47.6	74	39.7	0	0	---	0.00	29.821 
08:15	47.7	47.7	47.7	74	39.8	0	1	225	0.00	29.815 
08:20	47.7	47.7	47.7	74	39.8	0	2	225	0.00	29.815 
08:25	47.9	47.9	47.9	74	40.0	0	0	---	0.00	29.815 
08:30	47.9	47.9	47.9	74	40.0	0	1	225	0.00	29.804 
08:35	48.0	48.0	48.0	73	39.8	0	1	225	0.00	29.804 
08:40	48.0	48.0	48.0	74	40.1	0	1	225	0.00	29.804 
08:45	48.2	48.2	48.2	74	40.3	0	0	---	0.00	29.802 
08:50	48.3	48.3	48.3	74	40.4	0	1	225	0.00	29.802 
08:55	48.5	48.5	48.5	73	40.2	0	0	---	0.00	29.802 
09:00	48.8	48.8	48.8	74	40.9	0	0	---	0.00	29.803 
09:05	48.9	48.9	48.9	73	40.6	0	0	---	0.00	29.803 
09:10	49.1	49.1	49.1	73	40.8	0	0	---	0.00	29.803 
09:15	49.2	49.2	49.2	74	41.3	0	0	---	0.00	29.814 
09:20	49.4	49.4	49.4	75	41.8	0	0	---	0.00	29.814 
09:25	49.4	49.4	49.4	76	42.2	0	0	---	0.00	29.814 
09:30	49.4	49.4	49.4	77	42.5	0	0	---	0.00	29.825 
09:35	49.5	49.5	49.5	77	42.6	0	0	---	0.00	29.825 
09:40	49.5	49.5	49.5	77	42.6	0	0	---	0.00	29.825 
09:45	49.6	49.6	49.6	79	43.4	0	0	---	0.00	29.827 
09:50	49.6	49.6	49.6	80	43.7	0	0	---	0.00	29.827 
09:55	49.6	49.6	49.6	80	43.7	0	0	---	0.00	29.827 
10:00	49.6	49.6	49.6	80	43.7	0	0	---	0.00	29.831 
10:05	49.9	49.9	49.9	81	44.3	0	0	---	0.00	29.831 
10:10	50.2	50.2	50.2	82	44.9	0	0	---	0.00	29.831 
10:15	50.5	50.5	50.5	81	44.9	0	0	---	0.00	29.833 
10:20	50.8	50.8	50.8	81	45.2	0	0	---	0.00	29.833 
10:25	51.0	51.0	51.0	81	45.4	0	0	---	0.00	29.833 
10:30	51.1	51.1	51.1	81	45.5	0	0	---	0.00	29.811 
10:35	51.4	51.4	51.4	81	45.8	0	0	---	0.00	29.811 
10:40	51.9	51.9	51.9	81	46.3	0	0	---	0.00	29.811 
10:45	52.5	52.5	52.5	80	46.5	0	1	225	0.00	29.795 
10:50	52.9	52.9	52.9	79	46.6	0	1	225	0.00	29.795 
10:55	53.5	53.5	53.5	77	46.5	0	1	225	0.00	29.795 
11:00	54.2	54.2	54.2	77	47.1	0	0	---	0.00	29.777 
11:05	54.8	54.8	54.8	75	47.0	0	1	225	0.00	29.777 
11:10	55.6	55.6	55.6	74	47.4	0	2	225	0.00	29.777 
11:15	56.6	56.6	56.6	67	45.8	1	3	248	0.00	29.759 
11:20	57.3	57.3	57.3	62	44.4	1	4	248	0.00	29.759 
11:25	58.3	58.3	58.3	60	44.5	1	3	270	0.00	29.759 
11:30	58.9	58.9	58.9	58	44.1	2	6	248	0.00	29.749 
11:35	59.0	59.0	59.0	55	42.9	2	5	248	0.00	29.749 
11:40	59.0	59.0	59.0	55	42.9	1	7	248	0.00	29.749 
11:45	59.0	59.0	59.0	55	42.9	2	6	248	0.00	29.776 
11:50	58.9	58.9	58.9	56	43.2	2	6	270	0.00	29.776 
11:55	58.7	58.7	58.7	57	43.5	1	4	270	0.00	29.776 
12:00	58.4	58.4	58.4	61	45.0	1	4	270	0.01	29.782 
12:05	57.6	57.6	57.6	65	45.9	1	4	248	0.00	29.782 
12:10	56.9	56.9	56.9	68	46.4	0	3	248	0.01	29.782 
12:15	56.3	56.3	56.3	70	46.6	0	2	270	0.00	29.748 
12:20	56.2	56.2	56.2	71	46.9	0	1	270	0.00	29.748 
12:25	56.3	56.3	56.3	72	47.4	0	1	270	0.00	29.748 
12:30	56.5	56.5	56.5	74	48.3	0	1	270	0.00	29.740 
12:35	56.5	56.5	56.5	75	48.7	0	1	270	0.00	29.740 
12:40	56.5	56.5	56.5	75	48.7	0	2	270	0.00	29.740 
12:45	56.5	56.5	56.5	74	48.3	0	2	270	0.00	29.743 
12:50	56.3	56.3	56.3	76	48.8	0	1	270	0.00	29.743 
12:55	56.5	56.5	56.5	76	49.0	0	0	---	0.00	29.743 
13:00	56.6	56.6	56.6	77	49.5	0	0	---	0.00	29.736 
13:05	57.0	57.0	57.0	76	49.5	0	1	270	0.00	29.736 
13:10	57.2	57.2	57.2	74	49.0	0	2	270	0.00	29.736 
13:15	57.5	57.5	57.5	74	49.3	0	1	270	0.00	29.739 
13:20	57.5	57.5	57.5	73	48.9	0	2	270	0.00	29.739 
13:25	57.5	57.5	57.5	74	49.3	0	2	270	0.01	29.739 
13:30	57.3	57.3	57.3	77	50.1	0	2	270	0.00	29.748 
13:35	57.2	57.2	57.2	78	50.4	0	1	270	0.00	29.748 
13:40	57.2	57.2	57.2	79	50.7	0	1	270	0.00	29.748 
13:45	57.2	57.2	57.2	77	50.1	1	3	270	0.00	29.732 
13:50	57.3	57.3	57.3	76	49.8	2	4	270	0.00	29.732 
13:55	57.3	57.3	57.3	76	49.8	2	5	292	0.00	29.732 
14:00	57.0	57.0	57.0	75	49.2	2	5	270	0.00	29.747 
14:05	56.7	56.7	56.7	75	48.9	2	7	270	0.01	29.747 
14:10	56.3	56.3	56.3	77	49.2	1	3	270	0.00	29.747 
14:15	55.9	55.9	55.9	77	48.8	1	4	270	0.00	29.728 
14:20	55.9	55.9	55.9	79	49.5	0	2	270	0.00	29.728 
14:25	56.0	56.0	56.0	79	49.6	0	3	270	0.00	29.728 
14:30	56.2	56.2	56.2	77	49.1	3	6	270	0.00	29.720 
14:35	56.2	56.2	56.2	77	49.1	3	7	270	0.00	29.720 
14:40	56.2	56.2	56.2	77	49.1	3	6	270	0.00	29.720 
14:45	56.6	56.6	56.6	77	49.5	1	5	338	0.00	29.717 
14:50	56.6	56.6	56.6	76	49.1	3	7	270	0.00	29.717 
14:55	56.5	56.5	56.5	77	49.4	2	5	270	0.00	29.717 
15:00	56.3	56.3	56.3	78	49.5	2	4	292	0.00	29.711 
15:05	56.0	56.0	56.0	78	49.2	2	7	270	0.00	29.711 
15:10	55.7	55.7	55.7	80	49.6	2	5	315	0.00	29.711 
15:15	55.4	55.4	55.4	77	48.3	2	5	338	0.00	29.719 
15:20	55.6	55.6	55.6	77	48.5	2	5	270	0.00	29.719 
15:25	55.7	55.7	55.7	77	48.6	2	5	270	0.00	29.719 
15:30	56.0	56.0	56.0	76	48.5	3	6	248	0.00	29.715 
15:35	56.3	56.3	56.3	75	48.5	3	6	270	0.00	29.715 
15:40	56.5	56.5	56.5	75	48.7	4	6	270	0.00	29.715 
15:45	56.9	56.9	56.9	75	49.1	3	6	270	0.00	29.730 
15:50	57.2	57.2	57.2	75	49.3	3	5	292	0.00	29.730 
15:55	57.3	57.3	57.3	74	49.1	3	6	270	0.00	29.730 
16:00	57.8	57.8	57.8	75	49.9	3	6	270	0.00	29.729 
16:05	58.0	58.0	58.0	74	49.8	2	5	315	0.00	29.729 
16:10	58.1	58.1	58.1	74	49.9	3	6	315	0.00	29.729 
16:15	58.1	58.1	58.1	72	49.1	2	7	270	0.00	29.736 
16:20	58.1	58.1	58.1	71	48.7	2	5	315	0.00	29.736 
16:25	58.0	58.0	58.0	71	48.6	2	5	270	0.00	29.736 
16:30	58.0	58.0	58.0	71	48.6	2	6	270	0.00	29.748 
16:35	58.0	58.0	58.0	69	47.9	2	5	270	0.00	29.748 
16:40	57.8	57.8	57.8	68	47.3	2	6	270	0.00	29.748 
16:45	57.3	57.3	57.3	66	46.0	4	7	270	0.00	29.747 
16:50	57.0	57.0	57.0	65	45.4	4	7	270	0.00	29.747 
16:55	56.9	56.9	56.9	66	45.7	2	5	270	0.00	29.747 
17:00	56.7	56.7	56.7	66	45.5	2	5	270	0.00	29.743 
17:05	56.7	56.7	56.7	65	45.1	3	5	270	0.00	29.743 
17:10	56.9	56.9	56.9	64	44.8	2	6	270	0.00	29.743 
17:15	56.9	56.9	56.9	64	44.8	2	5	270	0.00	29.749 
17:20	56.7	56.7	56.7	63	44.2	1	4	270	0.00	29.749 
17:25	56.7	56.7	56.7	62	43.8	2	4	292	0.00	29.749 
17:30	56.6	56.6	56.6	62	43.7	2	5	270	0.00	29.751 
17:35	56.6	56.6	56.6	62	43.7	3	7	292	0.00	29.751 
17:40	56.5	56.5	56.5	62	43.6	2	4	292	0.00	29.751 
17:45	56.5	56.5	56.5	61	43.2	3	6	270	0.00	29.763 
17:50	56.3	56.3	56.3	62	43.4	2	4	270	0.00	29.763 
17:55	56.3	56.3	56.3	61	43.0	4	6	270	0.00	29.763 
18:00	56.3	56.3	56.3	62	43.4	3	5	270	0.00	29.756 
18:05	56.2	56.2	56.2	62	43.4	2	6	270	0.00	29.756 
18:10	56.2	56.2	56.2	62	43.4	3	6	292	0.00	29.756 
18:15	56.0	56.0	56.0	62	43.2	2	6	270	0.00	29.764 
18:20	56.0	56.0	56.0	63	43.6	3	6	270	0.00	29.764 
18:25	55.9	55.9	55.9	64	43.9	1	3	270	0.00	29.764 
18:30	55.7	55.7	55.7	65	44.1	2	5	270	0.00	29.766 
18:35	55.4	55.4	55.4	65	43.8	2	4	270	0.00	29.766 
18:40	55.3	55.3	55.3	66	44.1	2	6	270	0.00	29.766 
18:45	55.1	55.1	55.1	66	43.9	2	4	270	0.00	29.771 
18:50	55.0	55.0	55.0	67	44.2	2	3	270	0.00	29.771 
18:55	54.7	54.7	54.7	68	44.3	2	5	292	0.00	29.771 
19:00	54.5	54.5	54.5	69	44.5	2	5	270	0.00	29.784 
19:05	54.4	54.4	54.4	69	44.4	2	4	270	0.00	29.784 
19:10	54.2	54.2	54.2	69	44.3	2	5	270	0.00	29.784 
19:15	54.1	54.1	54.1	69	44.2	2	4	292	0.00	29.793 
19:20	53.9	53.9	53.9	69	44.0	2	5	270	0.00	29.793 
19:25	53.8	53.8	53.8	69	43.9	1	4	270	0.00	29.793 
19:30	53.8	53.8	53.8	69	43.9	2	5	270	0.00	29.800 
19:35	53.5	53.5	53.5	70	44.0	1	5	270	0.00	29.800 
19:40	53.3	53.3	53.3	70	43.8	0	2	270	0.00	29.800 
19:45	53.2	53.2	53.2	71	44.0	1	4	270	0.00	29.802 
19:50	52.9	52.9	52.9	71	43.8	0	2	270	0.00	29.802 
19:55	52.8	52.8	52.8	72	44.0	0	2	270	0.00	29.802 
20:00	52.5	52.5	52.5	71	43.4	1	3	338	0.00	29.810 
20:05	52.3	52.3	52.3	71	43.2	0	2	338	0.00	29.810 
20:10	52.2	52.2	52.2	71	43.1	0	2	338	0.00	29.810 
20:15	52.0	52.0	52.0	70	42.5	0	2	338	0.00	29.811 
20:20	51.7	51.7	51.7	71	42.6	0	2	338	0.00	29.811 
20:25	51.6	51.6	51.6	71	42.5	0	1	338	0.00	29.811 
20:30	51.3	51.3	51.3	71	42.2	0	1	338	0.00	29.807 
20:35	51.0	51.0	51.0	72	42.3	0	0	---	0.00	29.807 
20:40	50.7	50.7	50.7	71	41.6	0	2	338	0.00	29.807 
20:45	50.5	50.5	50.5	70	41.1	0	1	338	0.00	29.807 
20:50	50.4	50.4	50.4	70	41.0	0	0	---	0.00	29.807 
20:55	50.2	50.2	50.2	71	41.2	0	0	---	0.00	29.807 
21:00	49.9	49.9	49.9	72	41.2	0	0	---	0.00	29.813 
21:05	49.6	49.6	49.6	72	40.9	0	0	---	0.00	29.813 
21:10	49.2	49.2	49.2	73	40.9	0	0	---	0.00	29.813 
21:15	48.9	48.9	48.9	73	40.6	0	0	---	0.00	29.815 
21:20	48.8	48.8	48.8	74	40.9	0	0	---	0.00	29.815 
21:25	48.5	48.5	48.5	74	40.6	0	0	---	0.00	29.815 
21:30	48.5	48.5	48.5	74	40.6	0	0	---	0.00	29.818 
21:35	48.3	48.3	48.3	75	40.7	0	1	338	0.00	29.818 
21:40	48.3	48.3	48.3	75	40.7	0	0	---	0.00	29.818 
21:45	48.3	48.3	48.3	75	40.7	0	1	338	0.00	29.819 
21:50	48.5	48.5	48.5	75	40.9	0	1	338	0.00	29.819 
21:55	48.8	48.8	48.8	75	41.2	0	1	248	0.00	29.819 
22:00	48.9	48.9	48.9	75	41.3	0	1	248	0.00	29.819 
22:05	49.1	49.1	49.1	74	41.2	0	1	248	0.00	29.819 
22:10	49.2	49.2	49.2	74	41.3	0	2	248	0.00	29.819 
22:15	49.2	49.2	49.2	73	40.9	0	2	248	0.00	29.820 
22:20	49.4	49.4	49.4	73	41.1	0	2	248	0.00	29.820 
22:25	49.4	49.4	49.4	73	41.1	0	2	248	0.00	29.820 
22:30	49.5	49.5	49.5	73	41.2	0	3	248	0.00	29.819 
22:35	49.5	49.5	49.5	72	40.9	0	3	248	0.00	29.819 
22:40	49.6	49.6	49.6	71	40.6	2	5	248	0.00	29.819 
22:45	49.6	49.6	49.6	71	40.6	0	2	270	0.00	29.823 
22:50	49.5	49.5	49.5	71	40.5	0	2	270	0.00	29.823 
22:55	49.4	49.4	49.4	70	40.0	1	3	270	0.00	29.823 
23:00	49.2	49.2	49.2	70	39.8	0	2	270	0.00	29.827 
23:05	49.2	49.2	49.2	70	39.8	1	5	270	0.00	29.827 
23:10	49.2	49.2	49.2	69	39.5	1	3	270	0.00	29.827 
23:15	49.2	49.2	49.2	69	39.5	0	3	270	0.00	29.824 
23:20	49.1	49.1	49.1	68	39.0	1	3	270	0.00	29.824 
23:25	49.1	49.1	49.1	68	39.0	0	2	270	0.00	29.824 
23:30	48.9	48.9	48.9	68	38.8	0	3	270	0.00	29.825 
23:35	48.8	48.8	48.8	68	38.7	0	3	270	0.00	29.825 
23:40	48.8	48.8	48.8	68	38.7	0	3	270	0.00	29.825 
23:45	48.6	48.6	48.6	67	38.1	1	3	270	0.00	29.829 
23:50	48.6	48.6	48.6	67	38.1	0	3	270	0.00	29.829 
23:55	48.5	48.5	48.5	68	38.4	0	3	270	0.00	29.829 

CoCoRaHS
IN-AL-39
A2 Web Hosting
Creative Commons License
GoDaddy
search engine by freefind advanced

loaded 2018-11-20 02:28:20 • last modified 2010-11-18 10:43:29
Privacy PolicyDisclaimer
• wx.awcolley.com is powered by PmWiki v.2002016 •
• all content (unless otherwise noted) © 2018 A W Colley